Terminal Aerodrome Forecast
Issued by NWS

Home | Current Version | Previous Version | Text Only | Print | Product List | Glossary On
Versions: 1 2 3 4 5 6 7 8 9 10 11 12 13 14 15 16 17 18 19 20 21
011
FTUS42 KTAE 220527
TAFABY
TAF
KABY 220527Z 2206/2306 20010KT 5SM -SHRA VCTS BKN025CB
      TEMPO 2206/2210 VRB15G25KT 2SM TSRA BKN015CB
     FM221000 20010KT 3SM TSRA OVC010CB
     FM221800 22020G30KT 6SM -RA OVC015
     FM222300 23014G18KT P6SM SCT050=

USA.gov is the U.S. government's official web portal to all federal, state and local government web resources and services.